Flight Track Log - Related Links

Times and Time Zones

All times are in EDT time to prevent confusion due to time zone crossing. See the KAP17 flight status page for this flight to view local times or setup timezone preferences in your user account.

Time Position Orientation Groundspeed Altitude Reporting Facility
EDT Latitude Longitude Course Direction KTS MPH feet Rate Location/Type
Mon 06:18:20 AM 43.6361 -72.3969 144° Southeast 156 180 7,000  Level Boston Center
Mon 06:19:20 AM 43.6569 -72.4486 299° West 156 180 7,000  Level Boston Center
Mon 06:20:20 AM 43.6778 -72.4975 301° West 156 180 7,000 -1,800 Level Boston Center
Mon 06:21:20 AM 43.5903 -72.2481 116° Southeast 156 180 3,400 -1,450 Descending Boston Center
Mon 06:22:00 AM 43.5981 -72.0981 144° Southeast  Level FlightAware Approximate
Mon 06:22:20 AM 43.5858 -72.1878 96° East 156 180 4,100  Level Boston Center
Mon 06:23:20 AM 43.5794 -72.1247 98° East 156 180 4,500 500 Climbing Boston Center
Mon 06:24:20 AM 43.5731 -72.0619 98° East 162 186 5,100 650 Climbing Boston Center
Mon 06:25:20 AM 43.5458 -72.0161 129° Southeast 156 180 5,800 450 Climbing Boston Center
Mon 06:26:20 AM 43.5122 -71.9736 137° Southeast 156 180 6,000 400 Climbing Boston Center
Mon 06:27:20 AM 43.4767 -71.9308 139° Southeast 167 192 6,600 450 Climbing Boston Center
Mon 06:28:20 AM 43.4389 -71.8853 139° Southeast 172 198 6,900 150 Climbing Boston Center
Mon 06:29:20 AM 43.3992 -71.8286 134° Southeast 191 220 6,900  Level Boston Center
Mon 06:30:20 AM 43.3633 -71.7806 136° Southeast 191 220 6,900  Level Boston Center
Mon 06:31:20 AM 43.3256 -71.7236 132° Southeast 196 226 6,900  Level Boston Center
Mon 06:32:20 AM 43.2897 -71.6786 138° Southeast 196 226 6,900  Level Boston Center
Mon 06:33:20 AM 43.2458 -71.6278 140° Southeast 191 220 6,900  Level Boston Center
Mon 06:34:20 AM 43.2036 -71.5828 142° Southeast 186 214 6,900  Level Boston Center
Mon 06:35:20 AM 43.1597 -71.5378 143° Southeast 192 221 6,900 50 Level Boston Center
Mon 06:36:20 AM 43.1239 -71.4986 141° Southeast 192 221 7,000 -100 Climbing Boston Center
Mon 06:37:20 AM 43.0775 -71.4508 143° Southeast 192 221 6,700 -317 Descending Boston Center
Mon 06:39:29 AM 42.9833 -71.3500 142° Southeast 197 227 6,000 -223 Descending KA90
Mon 06:40:28 AM 42.9500 -71.3000 132° Southeast 191 220 6,000  Level KA90
Mon 06:41:28 AM 42.9000 -71.2667 154° Southeast 184 212 6,000  Level KA90
Mon 06:42:28 AM 42.8667 -71.2167 132° Southeast 185 213 6,000  Level KA90
Mon 06:43:30 AM 42.8167 -71.1833 154° Southeast 180 207 6,000  Level KA90
Mon 06:44:30 AM 42.7833 -71.1333 132° Southeast 176 203 6,000  Level KA90
Mon 06:45:29 AM 42.7500 -71.1000 144° Southeast 172 198 6,000  Level KA90
Mon 06:46:29 AM 42.7000 -71.0667 154° Southeast 177 204 6,000  Level KA90
Mon 06:47:29 AM 42.6667 -71.0167 132° Southeast 177 204 6,000 -250 Level KA90
Mon 06:48:29 AM 42.6167 -70.9833 154° Southeast 182 209 5,500 -571 Descending KA90
Mon 06:49:35 AM 42.5667 -70.9833 180° South 159 183 4,800 -762 Descending KA90
Mon 06:50:35 AM 42.5333 -70.9833 180° South 164 189 3,900 -950 Descending KA90
Mon 06:51:35 AM 42.4833 -70.9667 166° South 148 170 2,900 -1,000 Descending KA90
Mon 06:52:35 AM 42.4500 -70.9667 180° South 128 147 1,900 -887 Descending KA90
Mon 06:53:30 AM 42.4167 -70.9833 200° South 130 150 1,200 -737 Descending KA90
Mon 06:54:29 AM 42.4000 -70.9833 180° South 111 128 500 -712 Descending KA90
Mon 06:56:00 AM 42.3630 -71.0064 172° South  Level Estimated
Mon 07:03:00 AM 42.3630 -71.0064 172° South  Level Estimated

Login

Don't have an account? Register now (free) for customized features, flight alerts, and more!